Time;durP1;ratioP1;P1;durP2;ratioP2;P2;SDS_P1;SDS_P2;PMS_P1;PMS_P2;Temp;Humidity;BMP_temperature;BMP_pressure;BME280_temperature;BME280_humidity;BME280_pressure;Samples;Min_cycle;Max_cycle;Signal;HPM_P1;HPM_P2
2021/11/18 00:00:37;;;;;;;33.47;17.93;;;7.40;99.90;;;;;;5117537;28;20481;-67
2021/11/18 00:03:05;;;;;;;32.03;19.57;;;7.40;99.90;;;;;;5117420;28;20461;-67
2021/11/18 00:05:33;;;;;;;39.43;18.80;;;7.40;99.90;;;;;;5117492;28;20465;-67
2021/11/18 00:08:00;;;;;;;35.13;17.57;;;7.30;99.90;;;;;;5117460;28;20788;-67
2021/11/18 00:10:31;;;;;;;33.80;17.27;;;7.30;99.90;;;;;;5117312;28;20791;-66
2021/11/18 00:13:00;;;;;;;34.00;17.40;;;7.30;99.90;;;;;;5117304;27;20443;-66
2021/11/18 00:15:28;;;;;;;39.87;18.03;;;7.30;99.90;;;;;;5117185;28;20456;-67
2021/11/18 00:17:58;;;;;;;30.73;16.10;;;7.30;99.90;;;;;;5117247;27;20823;-66
2021/11/18 00:20:26;;;;;;;37.10;15.90;;;7.30;99.90;;;;;;5117053;28;20443;-66
2021/11/18 00:22:53;;;;;;;34.20;16.23;;;7.30;99.90;;;;;;5117122;28;20438;-66
2021/11/18 00:25:20;;;;;;;39.47;17.23;;;7.30;99.90;;;;;;5116347;28;20914;-67
2021/11/18 00:27:48;;;;;;;35.63;15.80;;;7.30;99.90;;;;;;5116850;28;20904;-66
2021/11/18 00:30:16;;;;;;;30.20;16.30;;;7.30;99.90;;;;;;5116536;27;20918;-67
2021/11/18 00:32:43;;;;;;;35.27;15.60;;;7.30;99.90;;;;;;5116546;28;20464;-66
2021/11/18 00:35:15;;;;;;;28.10;15.77;;;7.30;99.90;;;;;;5116201;28;20464;-67
2021/11/18 00:37:42;;;;;;;31.70;15.70;;;7.30;99.90;;;;;;5117066;28;20482;-67
2021/11/18 00:40:11;;;;;;;32.27;13.83;;;7.20;99.90;;;;;;5116464;28;20505;-67
2021/11/18 00:42:38;;;;;;;27.37;13.90;;;7.20;99.90;;;;;;5116683;28;20468;-66
2021/11/18 00:45:07;;;;;;;28.40;14.67;;;7.20;99.90;;;;;;5116827;28;20462;-68
2021/11/18 00:47:34;;;;;;;20.17;12.93;;;7.20;99.90;;;;;;5116656;28;20914;-66
2021/11/18 00:50:01;;;;;;;31.67;13.80;;;7.20;99.90;;;;;;5117241;28;20763;-67
2021/11/18 00:52:28;;;;;;;28.60;14.13;;;7.20;99.90;;;;;;5117789;28;20773;-66
2021/11/18 00:54:54;;;;;;;26.03;12.80;;;7.20;99.90;;;;;;5116980;27;20590;-67
2021/11/18 00:57:21;;;;;;;27.90;12.60;;;7.20;99.90;;;;;;5116798;28;20458;-66
2021/11/18 00:59:48;;;;;;;26.43;13.07;;;7.20;99.90;;;;;;5115764;28;20908;-66
2021/11/18 01:02:17;;;;;;;27.63;14.00;;;7.20;99.90;;;;;;5116226;28;20812;-66
2021/11/18 01:04:46;;;;;;;24.70;14.23;;;7.20;99.90;;;;;;5115881;28;20457;-67
2021/11/18 01:07:13;;;;;;;31.87;13.57;;;7.20;99.90;;;;;;5116077;28;20456;-67
2021/11/18 01:09:40;;;;;;;25.10;11.83;;;7.20;99.90;;;;;;5116171;28;20453;-66
2021/11/18 01:12:09;;;;;;;24.83;13.93;;;7.20;99.90;;;;;;5115958;28;20940;-68
2021/11/18 01:14:36;;;;;;;29.67;14.10;;;7.20;99.90;;;;;;5115516;28;20458;-67
2021/11/18 01:17:03;;;;;;;26.23;13.60;;;7.20;99.90;;;;;;5116125;28;20455;-67
2021/11/18 01:19:32;;;;;;;29.13;14.20;;;7.20;99.90;;;;;;5115949;28;20486;-67
2021/11/18 01:22:00;;;;;;;26.90;15.10;;;7.20;99.90;;;;;;5115470;28;20482;-67
2021/11/18 01:24:27;;;;;;;32.00;14.60;;;7.20;99.90;;;;;;5116229;28;20451;-68
2021/11/18 01:26:53;;;;;;;30.80;14.40;;;7.20;99.90;;;;;;5116769;28;20478;-66
2021/11/18 01:29:20;;;;;;;33.23;14.40;;;7.20;99.90;;;;;;5116128;28;20465;-66
2021/11/18 01:31:47;;;;;;;28.87;13.23;;;7.20;99.90;;;;;;5115937;28;20538;-65
2021/11/18 01:34:14;;;;;;;33.13;14.93;;;7.20;99.90;;;;;;5115821;28;20455;-66
2021/11/18 01:36:42;;;;;;;27.30;13.63;;;7.20;99.90;;;;;;5115462;28;20492;-66
2021/11/18 01:39:09;;;;;;;31.37;12.27;;;7.20;99.90;;;;;;5115371;28;20571;-66
2021/11/18 01:41:37;;;;;;;32.30;13.80;;;7.20;99.90;;;;;;5115439;28;20461;-66
2021/11/18 01:44:11;;;;;;;29.43;12.83;;;7.20;99.90;;;;;;5115587;28;20453;-66
2021/11/18 01:46:38;;;;;;;36.33;15.17;;;7.20;99.90;;;;;;5115351;28;20443;-67
2021/11/18 01:49:08;;;;;;;35.83;14.87;;;7.20;99.90;;;;;;5115579;28;20462;-66
2021/11/18 01:51:38;;;;;;;32.50;16.10;;;7.20;99.90;;;;;;5115218;28;20467;-66
2021/11/18 01:54:06;;;;;;;27.20;15.10;;;7.20;99.90;;;;;;5115166;28;20915;-66
2021/11/18 01:56:34;;;;;;;32.43;15.10;;;7.20;99.90;;;;;;5115626;28;20517;-66
2021/11/18 01:59:07;;;;;;;29.90;14.53;;;7.10;99.90;;;;;;5115115;28;20482;-65
2021/11/18 02:01:34;;;;;;;28.27;13.90;;;7.10;99.90;;;;;;5115586;27;20521;-65
2021/11/18 02:04:00;;;;;;;22.73;12.10;;;7.10;99.90;;;;;;5115315;28;20538;-66
2021/11/18 02:06:32;;;;;;;29.03;12.70;;;7.10;99.90;;;;;;5115188;28;20519;-66
2021/11/18 02:08:59;;;;;;;30.83;14.03;;;7.10;99.90;;;;;;5115560;28;20446;-66
2021/11/18 02:11:32;;;;;;;26.50;13.93;;;7.00;99.90;;;;;;5115016;27;20453;-66
2021/11/18 02:13:59;;;;;;;29.23;15.37;;;7.00;99.90;;;;;;5115178;28;20455;-66
2021/11/18 02:16:27;;;;;;;28.57;15.57;;;7.00;99.90;;;;;;5115043;28;20457;-66
2021/11/18 02:18:55;;;;;;;30.57;14.77;;;7.00;99.90;;;;;;5114930;28;20466;-66
2021/11/18 02:21:23;;;;;;;30.33;14.17;;;7.00;99.90;;;;;;5114374;28;20485;-66
2021/11/18 02:23:52;;;;;;;25.97;14.53;;;7.00;99.90;;;;;;5114917;28;20537;-66
2021/11/18 02:26:23;;;;;;;29.97;14.97;;;7.00;99.90;;;;;;5115032;28;20530;-66
2021/11/18 02:28:53;;;;;;;34.93;14.20;;;7.00;99.90;;;;;;5114705;28;20454;-66
2021/11/18 02:31:23;;;;;;;32.17;17.23;;;6.90;99.90;;;;;;5114747;28;20910;-66
2021/11/18 02:33:53;;;;;;;29.77;15.03;;;6.90;99.90;;;;;;5114639;28;20469;-66
2021/11/18 02:36:20;;;;;;;27.80;14.27;;;7.00;99.90;;;;;;5115082;28;20471;-66
2021/11/18 02:38:49;;;;;;;26.63;12.73;;;7.00;99.90;;;;;;5114599;28;20456;-67
2021/11/18 02:41:17;;;;;;;31.77;14.23;;;7.00;99.90;;;;;;5114631;28;20457;-66
2021/11/18 02:43:44;;;;;;;29.30;13.40;;;7.00;99.90;;;;;;5114939;28;20462;-65
2021/11/18 02:46:11;;;;;;;34.53;15.10;;;7.00;99.90;;;;;;5114932;28;20458;-67
2021/11/18 02:48:38;;;;;;;31.87;14.23;;;7.00;99.90;;;;;;5114843;28;20461;-67
2021/11/18 02:51:08;;;;;;;34.80;14.47;;;6.90;99.90;;;;;;5114704;28;20514;-65
2021/11/18 02:53:35;;;;;;;27.80;13.30;;;6.90;99.90;;;;;;5114563;28;20516;-66
2021/11/18 02:56:03;;;;;;;37.03;14.30;;;6.90;99.90;;;;;;5115003;28;20526;-66
2021/11/18 02:58:30;;;;;;;25.87;14.33;;;6.90;99.90;;;;;;5114834;28;20469;-66
2021/11/18 03:01:00;;;;;;;29.03;15.40;;;6.90;99.90;;;;;;5114415;28;20531;-66
2021/11/18 03:03:27;;;;;;;31.53;15.00;;;6.90;99.90;;;;;;5115036;28;20456;-66
2021/11/18 03:05:57;;;;;;;31.37;15.20;;;6.90;99.90;;;;;;5114424;28;20492;-66
2021/11/18 03:08:25;;;;;;;27.73;14.33;;;6.90;99.90;;;;;;5114655;28;20462;-66
2021/11/18 03:10:52;;;;;;;29.87;15.20;;;6.90;99.90;;;;;;5114750;28;20449;-66
2021/11/18 03:13:22;;;;;;;28.87;14.40;;;6.90;99.90;;;;;;5114345;28;20458;-66
2021/11/18 03:15:49;;;;;;;31.00;13.77;;;6.90;99.90;;;;;;5114523;28;20461;-66
2021/11/18 03:18:16;;;;;;;41.20;16.53;;;6.90;99.90;;;;;;5114757;28;20515;-66
2021/11/18 03:20:43;;;;;;;40.50;16.00;;;6.90;99.90;;;;;;5113996;28;20545;-66
2021/11/18 03:23:11;;;;;;;28.40;14.83;;;6.90;99.90;;;;;;5115490;28;20857;-67
2021/11/18 03:25:39;;;;;;;30.23;15.10;;;6.90;99.90;;;;;;5118332;27;20455;-66
2021/11/18 03:28:07;;;;;;;35.83;16.57;;;6.90;99.90;;;;;;5118258;28;20453;-66
2021/11/18 03:30:40;;;;;;;32.70;16.33;;;6.90;99.90;;;;;;5118210;28;20793;-66
2021/11/18 03:33:12;;;;;;;31.57;15.60;;;6.90;99.90;;;;;;5118626;28;20930;-66
2021/11/18 03:35:39;;;;;;;38.67;15.87;;;6.90;99.90;;;;;;5118083;28;20448;-66
2021/11/18 03:38:07;;;;;;;34.03;16.23;;;6.90;99.90;;;;;;5118121;28;20467;-66
2021/11/18 03:40:35;;;;;;;31.43;16.57;;;6.90;99.90;;;;;;5117847;28;20482;-66
2021/11/18 03:43:02;;;;;;;32.30;14.63;;;6.90;99.90;;;;;;5117974;28;20833;-66
2021/11/18 03:45:30;;;;;;;29.93;13.43;;;6.80;99.90;;;;;;5117379;28;20458;-67
2021/11/18 03:47:59;;;;;;;28.83;14.70;;;6.80;99.90;;;;;;5118000;28;20471;-67
2021/11/18 03:50:35;;;;;;;27.87;14.33;;;6.80;99.90;;;;;;5117922;28;20450;-67
2021/11/18 03:53:02;;;;;;;29.53;13.40;;;6.80;99.90;;;;;;5118023;27;20923;-67
2021/11/18 03:55:29;;;;;;;29.20;14.03;;;6.80;99.90;;;;;;5117527;28;20459;-67
2021/11/18 03:57:57;;;;;;;29.63;15.30;;;6.80;99.90;;;;;;5117667;28;20457;-67
2021/11/18 04:00:28;;;;;;;27.73;14.60;;;6.80;99.90;;;;;;5116862;28;21079;-67
2021/11/18 04:02:56;;;;;;;29.43;14.23;;;6.80;99.90;;;;;;5117678;28;20449;-67
2021/11/18 04:05:25;;;;;;;33.57;13.77;;;6.80;99.90;;;;;;5117012;28;20901;-67
2021/11/18 04:07:52;;;;;;;40.53;14.07;;;6.80;99.90;;;;;;5118205;28;20464;-67
2021/11/18 04:10:22;;;;;;;27.30;12.80;;;6.80;99.90;;;;;;5117315;28;20458;-68
2021/11/18 04:12:49;;;;;;;29.43;13.80;;;6.80;99.90;;;;;;5117336;28;20453;-67
2021/11/18 04:15:17;;;;;;;25.03;12.80;;;6.80;99.90;;;;;;5117562;28;20465;-67
2021/11/18 04:17:44;;;;;;;33.20;13.47;;;6.80;99.90;;;;;;5117111;28;20519;-68
2021/11/18 04:20:13;;;;;;;27.43;12.90;;;6.80;99.90;;;;;;5117732;28;20481;-67
2021/11/18 04:22:41;;;;;;;27.30;12.70;;;6.90;99.90;;;;;;5116833;28;20482;-67
2021/11/18 04:25:10;;;;;;;26.00;11.77;;;6.90;99.90;;;;;;5117242;28;20464;-67
2021/11/18 04:27:37;;;;;;;32.37;12.63;;;6.90;99.90;;;;;;5116848;28;20447;-67
2021/11/18 04:30:05;;;;;;;20.60;10.10;;;6.90;99.90;;;;;;5117031;28;20451;-67
2021/11/18 04:32:32;;;;;;;29.43;12.13;;;6.90;99.90;;;;;;5116619;28;20454;-71
2021/11/18 04:34:59;;;;;;;22.20;11.07;;;6.90;99.90;;;;;;5115787;28;20461;-68
2021/11/18 04:37:26;;;;;;;25.43;11.57;;;6.90;99.90;;;;;;5116317;28;20915;-68
2021/11/18 04:39:54;;;;;;;26.87;11.13;;;6.90;99.90;;;;;;5116754;28;20850;-68
2021/11/18 04:42:21;;;;;;;27.83;11.13;;;6.90;99.90;;;;;;5116238;27;20454;-67
2021/11/18 04:44:49;;;;;;;28.90;13.23;;;6.90;99.90;;;;;;5116341;28;20914;-68
2021/11/18 04:47:18;;;;;;;32.93;12.00;;;6.90;99.90;;;;;;5116226;28;20461;-68
2021/11/18 04:49:47;;;;;;;27.17;11.53;;;6.90;99.90;;;;;;5116219;28;20459;-67
2021/11/18 04:52:15;;;;;;;27.77;13.07;;;6.90;99.90;;;;;;5116553;28;20457;-68
2021/11/18 04:54:42;;;;;;;27.10;13.93;;;6.90;99.90;;;;;;5116324;28;20518;-68
2021/11/18 04:57:10;;;;;;;29.13;13.53;;;7.00;99.90;;;;;;5116338;28;20465;-66
2021/11/18 04:59:37;;;;;;;29.80;13.03;;;7.00;99.90;;;;;;5116048;28;20511;-68
2021/11/18 05:02:05;;;;;;;30.50;14.97;;;6.90;99.90;;;;;;5116416;28;20522;-68
2021/11/18 05:04:32;;;;;;;30.00;16.53;;;7.00;99.90;;;;;;5116186;28;20842;-68
2021/11/18 05:06:59;;;;;;;30.33;16.07;;;7.00;99.90;;;;;;5116310;27;20827;-68
2021/11/18 05:09:25;;;;;;;33.80;17.60;;;7.00;99.90;;;;;;5116081;28;20541;-68
2021/11/18 05:11:52;;;;;;;31.37;16.50;;;7.00;99.90;;;;;;5115853;28;20450;-68
2021/11/18 05:14:21;;;;;;;35.90;17.83;;;7.00;99.90;;;;;;5116056;28;20533;-68
2021/11/18 05:16:47;;;;;;;32.43;16.43;;;7.00;99.90;;;;;;5115811;28;20457;-67
2021/11/18 05:19:17;;;;;;;34.90;16.80;;;7.00;99.90;;;;;;5115512;28;20898;-68
2021/11/18 05:21:43;;;;;;;31.60;16.07;;;7.00;99.90;;;;;;5115405;28;20985;-67
2021/11/18 05:24:10;;;;;;;30.93;15.30;;;7.00;99.90;;;;;;5115996;28;20787;-68
2021/11/18 05:26:38;;;;;;;33.47;15.93;;;6.90;99.90;;;;;;5116008;28;20782;-68
2021/11/18 05:29:05;;;;;;;27.10;16.00;;;7.00;99.90;;;;;;5115853;28;20456;-68
2021/11/18 05:31:34;;;;;;;37.87;17.10;;;7.00;99.90;;;;;;5115805;28;20449;-68
2021/11/18 05:34:01;;;;;;;40.53;16.37;;;7.00;99.90;;;;;;5115577;28;20454;-68
2021/11/18 05:36:28;;;;;;;30.40;16.27;;;7.00;99.90;;;;;;5115671;28;20477;-68
2021/11/18 05:38:55;;;;;;;28.43;16.20;;;7.00;99.90;;;;;;5115268;28;20936;-68
2021/11/18 05:41:24;;;;;;;39.50;16.83;;;7.00;99.90;;;;;;5115567;28;20477;-68
2021/11/18 05:43:51;;;;;;;42.13;19.27;;;7.00;99.90;;;;;;5115454;28;20897;-67
2021/11/18 05:46:20;;;;;;;33.70;16.57;;;6.90;99.90;;;;;;5114958;28;20464;-67
2021/11/18 05:48:48;;;;;;;32.97;15.60;;;6.90;99.90;;;;;;5115248;28;20453;-68
2021/11/18 05:51:17;;;;;;;23.73;12.27;;;6.90;99.90;;;;;;5115355;28;20464;-67
2021/11/18 05:53:45;;;;;;;26.67;12.60;;;6.90;99.90;;;;;;5115946;28;20461;-68
2021/11/18 05:56:15;;;;;;;26.83;12.57;;;6.90;99.90;;;;;;5115417;28;20801;-67
2021/11/18 05:58:44;;;;;;;29.10;12.13;;;6.90;99.90;;;;;;5115469;28;20468;-67
2021/11/18 06:01:12;;;;;;;21.73;11.23;;;6.90;99.90;;;;;;5115074;28;20479;-68
2021/11/18 06:03:40;;;;;;;26.37;11.30;;;6.90;99.90;;;;;;5115167;28;20905;-68
2021/11/18 06:06:08;;;;;;;32.77;14.20;;;6.80;99.90;;;;;;5115113;28;20732;-68
2021/11/18 06:08:36;;;;;;;31.70;13.30;;;6.80;99.90;;;;;;5115355;28;20770;-68
2021/11/18 06:11:05;;;;;;;27.67;14.13;;;6.80;99.90;;;;;;5114892;28;20510;-67
2021/11/18 06:13:33;;;;;;;28.27;13.20;;;6.80;99.90;;;;;;5114888;28;20448;-67
2021/11/18 06:16:00;;;;;;;24.77;12.67;;;6.90;99.90;;;;;;5114960;28;20564;-68
2021/11/18 06:18:27;;;;;;;30.80;13.53;;;6.80;99.90;;;;;;5115136;28;20791;-67
2021/11/18 06:20:53;;;;;;;33.57;14.00;;;6.80;99.90;;;;;;5114629;28;20482;-67
2021/11/18 06:23:22;;;;;;;27.67;14.10;;;6.80;99.90;;;;;;5115127;28;20801;-68
2021/11/18 06:25:50;;;;;;;29.20;15.60;;;6.80;99.90;;;;;;5114831;28;20943;-67
2021/11/18 06:28:17;;;;;;;37.80;16.50;;;6.80;99.90;;;;;;5114994;28;20470;-67
2021/11/18 06:30:47;;;;;;;34.57;16.10;;;6.80;99.90;;;;;;5115027;28;20454;-68
2021/11/18 06:33:15;;;;;;;34.77;16.33;;;6.90;99.90;;;;;;5115462;28;20498;-68
2021/11/18 06:35:42;;;;;;;27.87;16.00;;;6.90;99.90;;;;;;5115050;28;20928;-68
2021/11/18 06:38:09;;;;;;;32.40;13.83;;;6.90;99.90;;;;;;5114721;28;20473;-68
2021/11/18 06:40:37;;;;;;;22.33;12.77;;;6.90;99.90;;;;;;5114920;28;20480;-67
2021/11/18 06:43:05;;;;;;;23.80;14.00;;;6.90;99.90;;;;;;5114554;28;20788;-68
2021/11/18 06:45:36;;;;;;;23.97;13.77;;;6.90;99.90;;;;;;5114721;28;20787;-67
2021/11/18 06:48:03;;;;;;;31.00;13.77;;;6.90;99.90;;;;;;5114405;28;20441;-67
2021/11/18 06:50:30;;;;;;;31.67;13.83;;;6.90;99.90;;;;;;5115527;28;20460;-67
2021/11/18 06:52:57;;;;;;;41.60;16.00;;;6.90;99.90;;;;;;5114567;28;20454;-69
2021/11/18 06:55:23;;;;;;;30.13;15.03;;;7.00;99.90;;;;;;5114885;28;20468;-68
2021/11/18 06:57:52;;;;;;;26.00;14.77;;;7.00;99.90;;;;;;5114811;28;20464;-68
2021/11/18 07:00:19;;;;;;;22.30;12.07;;;7.00;99.90;;;;;;5118795;28;20457;-67
2021/11/18 07:02:46;;;;;;;26.17;13.90;;;7.00;99.90;;;;;;5118310;28;20463;-68
2021/11/18 07:05:13;;;;;;;26.83;14.27;;;7.00;99.90;;;;;;5118415;28;20940;-67
2021/11/18 07:07:40;;;;;;;26.93;12.80;;;7.00;99.90;;;;;;5118381;28;20522;-67
2021/11/18 07:10:09;;;;;;;28.87;12.57;;;7.10;99.90;;;;;;5119001;28;20490;-67
2021/11/18 07:12:37;;;;;;;27.80;13.53;;;7.10;99.90;;;;;;5117906;28;20453;-68
2021/11/18 07:15:07;;;;;;;28.07;13.90;;;7.10;99.90;;;;;;5118309;28;20464;-68
2021/11/18 07:17:34;;;;;;;22.83;12.80;;;7.10;99.90;;;;;;5118163;28;20436;-68
2021/11/18 07:20:03;;;;;;;28.87;14.20;;;7.20;99.90;;;;;;5118111;28;20795;-68
2021/11/18 07:22:30;;;;;;;27.87;14.40;;;7.20;99.90;;;;;;5117398;28;20832;-68
2021/11/18 07:24:58;;;;;;;18.40;11.70;;;7.20;99.90;;;;;;5118696;28;20453;-68
2021/11/18 07:27:25;;;;;;;26.43;11.07;;;7.30;99.90;;;;;;5117949;28;20475;-68
2021/11/18 07:29:52;;;;;;;21.70;10.50;;;7.30;99.90;;;;;;5117989;28;20950;-68
2021/11/18 07:32:21;;;;;;;21.23;10.20;;;7.40;99.90;;;;;;5117808;27;20465;-68
2021/11/18 07:34:48;;;;;;;31.77;10.77;;;7.40;99.90;;;;;;5118163;28;20453;-69
2021/11/18 07:37:15;;;;;;;20.80;10.47;;;7.50;99.90;;;;;;5118507;28;20803;-68
2021/11/18 07:39:43;;;;;;;28.90;10.20;;;7.50;99.90;;;;;;5117836;28;20455;-67
2021/11/18 07:42:10;;;;;;;21.50;8.50;;;7.60;99.90;;;;;;5117923;28;20554;-69
2021/11/18 07:44:37;;;;;;;29.20;10.17;;;7.60;99.90;;;;;;5118094;28;20453;-69
2021/11/18 07:47:04;;;;;;;21.50;9.60;;;7.70;99.90;;;;;;5118223;28;20461;-68
2021/11/18 07:49:32;;;;;;;23.47;9.40;;;7.70;99.90;;;;;;5117917;28;20522;-69
2021/11/18 07:51:59;;;;;;;19.90;9.13;;;7.80;99.90;;;;;;5117703;28;20462;-68
2021/11/18 07:54:26;;;;;;;19.17;9.23;;;7.90;99.90;;;;;;5117617;28;20463;-68
2021/11/18 07:56:53;;;;;;;22.97;8.70;;;7.90;99.90;;;;;;5117385;28;20520;-68
2021/11/18 07:59:22;;;;;;;23.80;10.07;;;8.00;99.90;;;;;;5117099;28;20493;-68
2021/11/18 08:01:49;;;;;;;19.57;9.57;;;8.00;99.90;;;;;;5116981;28;21043;-68
2021/11/18 08:04:16;;;;;;;26.43;10.77;;;8.10;99.90;;;;;;5117136;28;20470;-68
2021/11/18 08:06:44;;;;;;;23.57;9.70;;;8.10;99.90;;;;;;5117100;28;20897;-68
2021/11/18 08:09:12;;;;;;;21.63;10.00;;;8.10;99.90;;;;;;5117086;28;20463;-67
2021/11/18 08:11:41;;;;;;;19.13;9.70;;;8.10;99.90;;;;;;5116752;28;20452;-67
2021/11/18 08:14:08;;;;;;;25.90;10.47;;;8.10;99.90;;;;;;5117043;28;20458;-67
2021/11/18 08:16:35;;;;;;;19.47;9.87;;;8.10;99.90;;;;;;5117190;28;20492;-67
2021/11/18 08:19:04;;;;;;;23.87;10.23;;;8.10;99.90;;;;;;5117204;27;20459;-68
2021/11/18 08:21:31;;;;;;;23.03;10.03;;;8.10;99.90;;;;;;5116641;28;20483;-68
2021/11/18 08:24:00;;;;;;;17.00;8.77;;;8.20;99.90;;;;;;5117074;28;20459;-67
2021/11/18 08:26:28;;;;;;;19.40;10.23;;;8.20;99.90;;;;;;5116886;28;20463;-67
2021/11/18 08:28:55;;;;;;;23.57;9.80;;;8.20;99.90;;;;;;5117007;28;20454;-67
2021/11/18 08:31:23;;;;;;;26.53;8.90;;;8.20;99.90;;;;;;5117023;28;20456;-68
2021/11/18 08:33:52;;;;;;;20.30;9.97;;;8.20;99.90;;;;;;5116210;28;20931;-68
2021/11/18 08:36:19;;;;;;;19.00;10.07;;;8.20;99.90;;;;;;5116778;28;20457;-67
2021/11/18 08:38:47;;;;;;;18.63;9.70;;;8.20;99.90;;;;;;5116479;28;20534;-68
2021/11/18 08:41:16;;;;;;;20.73;10.50;;;8.30;99.90;;;;;;5116841;28;20852;-68
2021/11/18 08:43:46;;;;;;;21.83;9.97;;;8.30;99.90;;;;;;5116485;28;20552;-68
2021/11/18 08:46:13;;;;;;;28.77;11.80;;;8.30;99.90;;;;;;5116364;28;20460;-68
2021/11/18 08:48:41;;;;;;;28.33;11.83;;;8.30;99.90;;;;;;5116021;27;20460;-68
2021/11/18 08:51:09;;;;;;;15.30;9.70;;;8.30;99.90;;;;;;5116181;28;20478;-67
2021/11/18 08:53:41;;;;;;;32.17;12.47;;;8.30;99.90;;;;;;5116172;28;20460;-67
2021/11/18 08:56:09;;;;;;;22.40;11.20;;;8.40;99.90;;;;;;5116327;28;20500;-68
2021/11/18 08:58:41;;;;;;;28.73;12.63;;;8.40;99.90;;;;;;5116039;28;20799;-68
2021/11/18 09:01:11;;;;;;;28.20;11.60;;;8.40;99.90;;;;;;5115969;28;20950;-67
2021/11/18 09:03:40;;;;;;;34.63;13.00;;;8.40;99.90;;;;;;5116232;27;20909;-67
2021/11/18 09:06:10;;;;;;;30.23;13.13;;;8.40;99.90;;;;;;5115944;28;20562;-68
2021/11/18 09:08:38;;;;;;;27.23;12.77;;;8.40;99.90;;;;;;5116864;28;20771;-68
2021/11/18 09:11:08;;;;;;;26.30;13.13;;;8.40;99.90;;;;;;5116073;28;20456;-68
2021/11/18 09:13:37;;;;;;;31.20;13.17;;;8.40;99.90;;;;;;5116082;28;20438;-68
2021/11/18 09:16:05;;;;;;;27.60;12.83;;;8.40;99.90;;;;;;5115581;28;20980;-68
2021/11/18 09:18:31;;;;;;;25.17;11.87;;;8.40;99.90;;;;;;5116153;28;20463;-68
2021/11/18 09:20:59;;;;;;;22.80;10.97;;;8.50;99.90;;;;;;5114808;28;20505;-70
2021/11/18 09:23:29;;;;;;;25.37;10.90;;;8.50;99.90;;;;;;5115832;28;20486;-67
2021/11/18 09:25:56;;;;;;;22.60;10.47;;;8.50;99.90;;;;;;5115907;28;20833;-68
2021/11/18 09:28:25;;;;;;;25.27;10.40;;;8.60;99.90;;;;;;5115645;28;20453;-67
2021/11/18 09:30:57;;;;;;;24.97;11.27;;;8.60;99.90;;;;;;5116223;28;20460;-68
2021/11/18 09:33:25;;;;;;;19.77;11.10;;;8.70;99.90;;;;;;5115092;28;20464;-68
2021/11/18 09:35:55;;;;;;;32.27;13.90;;;8.70;99.90;;;;;;5115846;27;20491;-68
2021/11/18 09:38:24;;;;;;;23.93;11.90;;;8.70;99.90;;;;;;5115792;28;20808;-68
2021/11/18 09:40:56;;;;;;;28.17;12.03;;;8.80;99.90;;;;;;5115301;28;20521;-68
2021/11/18 09:43:55;;;;;;;30.97;12.87;;;8.80;99.90;;;;;;5115383;28;20436;-69
2021/11/18 09:46:52;;;;;;;24.20;13.10;;;8.90;99.90;;;;;;5115443;28;20431;-69
2021/11/18 09:49:40;;;;;;;24.47;12.97;;;8.90;99.90;;;;;;5115456;28;20439;-67
2021/11/18 09:52:11;;;;;;;28.07;12.00;;;8.90;99.90;;;;;;5115385;28;20446;-67
2021/11/18 09:54:51;;;;;;;26.57;13.33;;;8.90;99.90;;;;;;5115416;28;20469;-68
2021/11/18 09:57:30;;;;;;;34.40;14.73;;;8.90;99.90;;;;;;5115416;28;20757;-68
2021/11/18 10:00:05;;;;;;;25.80;13.90;;;8.90;99.90;;;;;;5115578;28;20539;-68
2021/11/18 10:02:59;;;;;;;30.83;11.77;;;9.00;99.90;;;;;;5115693;28;20465;-68
2021/11/18 10:05:31;;;;;;;35.93;13.03;;;9.00;99.90;;;;;;5115202;28;20737;-67
2021/11/18 10:08:01;;;;;;;26.40;13.03;;;9.00;99.90;;;;;;5115066;28;20473;-68
2021/11/18 10:10:32;;;;;;;27.87;13.20;;;9.00;99.90;;;;;;5115210;28;20550;-68
2021/11/18 10:13:39;;;;;;;22.37;12.53;;;9.00;99.90;;;;;;5115271;28;20490;-67
2021/11/18 10:16:09;;;;;;;16.67;11.37;;;9.00;99.90;;;;;;5115070;28;20450;-67
2021/11/18 10:18:40;;;;;;;24.37;11.80;;;9.10;99.90;;;;;;5114685;28;20779;-68
2021/11/18 10:21:14;;;;;;;26.10;11.40;;;9.10;99.90;;;;;;5115029;28;20475;-69
2021/11/18 10:23:41;;;;;;;27.23;11.73;;;9.20;99.90;;;;;;5115085;28;20505;-67
2021/11/18 10:26:12;;;;;;;30.03;13.30;;;9.30;99.90;;;;;;5114876;28;20456;-70
2021/11/18 10:28:44;;;;;;;30.00;10.90;;;9.30;99.90;;;;;;5115405;28;20897;-68
2021/11/18 10:31:23;;;;;;;31.80;12.10;;;9.30;99.90;;;;;;5115210;28;20444;-68
2021/11/18 10:33:56;;;;;;;29.63;11.97;;;9.40;99.90;;;;;;5116897;28;20439;-68
2021/11/18 10:36:54;;;;;;;24.70;11.00;;;9.40;99.90;;;;;;5119368;28;20458;-68
2021/11/18 10:39:27;;;;;;;23.63;10.97;;;9.40;99.90;;;;;;5119375;28;20448;-68
2021/11/18 10:41:56;;;;;;;26.23;12.40;;;9.40;99.90;;;;;;5118756;28;20462;-67
2021/11/18 10:44:25;;;;;;;24.50;11.00;;;9.50;99.90;;;;;;5118662;28;20464;-67
2021/11/18 10:47:01;;;;;;;20.00;11.03;;;9.50;99.90;;;;;;5119047;27;20482;-67
2021/11/18 10:49:45;;;;;;;24.67;11.10;;;9.60;99.90;;;;;;5118932;28;20453;-68
2021/11/18 10:52:21;;;;;;;31.93;10.07;;;9.60;99.90;;;;;;5119025;28;20452;-68
2021/11/18 10:54:51;;;;;;;26.43;9.20;;;9.70;99.90;;;;;;5118767;28;20448;-67
2021/11/18 10:57:20;;;;;;;18.37;7.77;;;9.70;99.90;;;;;;5118733;28;20948;-68
2021/11/18 10:59:50;;;;;;;16.20;7.63;;;9.70;99.90;;;;;;5118761;28;20521;-67
2021/11/18 11:02:23;;;;;;;20.80;8.53;;;9.70;99.90;;;;;;5118774;28;20491;-68
2021/11/18 11:04:54;;;;;;;19.70;8.53;;;9.70;99.90;;;;;;5118372;28;20437;-68
2021/11/18 11:07:43;;;;;;;18.20;8.83;;;9.80;99.90;;;;;;5118237;28;20868;-68
2021/11/18 11:10:13;;;;;;;19.70;8.20;;;9.80;99.90;;;;;;5118575;27;20517;-67
2021/11/18 11:12:48;;;;;;;22.30;10.07;;;9.80;99.90;;;;;;5118466;28;20455;-68
2021/11/18 11:15:54;;;;;;;23.60;9.30;;;9.80;99.90;;;;;;5117846;28;20436;-67
2021/11/18 11:18:39;;;;;;;20.00;10.23;;;9.90;99.90;;;;;;5100618;28;20485;-68
2021/11/18 11:21:31;;;;;;;23.33;10.30;;;10.00;99.90;;;;;;5117650;28;20513;-68
2021/11/18 11:24:14;;;;;;;18.93;11.20;;;10.10;99.90;;;;;;5106008;27;20572;-67
2021/11/18 11:27:23;;;;;;;23.87;11.33;;;10.10;99.90;;;;;;5118733;27;20906;-67
2021/11/18 11:29:52;;;;;;;21.93;8.23;;;10.10;99.90;;;;;;5088845;27;20455;-69
2021/11/18 11:32:24;;;;;;;17.40;9.67;;;10.10;99.90;;;;;;5117878;28;20456;-68
2021/11/18 11:35:06;;;;;;;23.47;9.47;;;10.10;99.90;;;;;;5117976;28;20501;-68
2021/11/18 11:38:09;;;;;;;18.00;10.40;;;10.10;99.90;;;;;;5117687;28;20889;-68
2021/11/18 11:40:48;;;;;;;22.77;10.10;;;10.10;99.90;;;;;;5117446;28;20832;-67
2021/11/18 11:43:32;;;;;;;23.17;9.00;;;10.10;99.90;;;;;;5117087;28;20483;-69
2021/11/18 11:46:08;;;;;;;23.77;10.47;;;10.20;99.90;;;;;;5117655;28;20721;-70
2021/11/18 11:49:02;;;;;;;19.57;9.90;;;10.20;99.90;;;;;;5117494;28;20459;-68
2021/11/18 11:51:49;;;;;;;13.50;8.57;;;10.30;99.90;;;;;;5117618;28;20446;-68
2021/11/18 11:54:37;;;;;;;24.33;9.97;;;10.30;99.90;;;;;;5117676;28;20434;-68
2021/11/18 11:57:16;;;;;;;14.80;8.63;;;10.30;99.90;;;;;;5117575;28;20445;-68
2021/11/18 11:59:47;;;;;;;23.93;9.03;;;10.40;99.90;;;;;;5117328;28;20486;-67
2021/11/18 12:02:22;;;;;;;18.60;9.73;;;10.50;99.90;;;;;;5118146;28;20957;-67
2021/11/18 12:04:53;;;;;;;21.13;10.10;;;10.50;99.90;;;;;;5117840;28;20941;-67
2021/11/18 12:07:23;;;;;;;18.80;9.60;;;10.50;99.90;;;;;;5117168;28;20909;-67
2021/11/18 12:10:04;;;;;;;24.33;9.37;;;10.60;99.90;;;;;;5117280;27;20457;-67
2021/11/18 12:12:37;;;;;;;21.40;10.70;;;10.60;99.90;;;;;;5117385;28;20430;-68
2021/11/18 12:15:13;;;;;;;22.30;9.00;;;10.60;99.90;;;;;;5116773;27;20907;-68
2021/11/18 12:17:43;;;;;;;26.93;9.33;;;10.70;99.90;;;;;;5117038;28;20460;-68
2021/11/18 12:20:16;;;;;;;25.13;9.67;;;10.70;99.90;;;;;;5118313;28;20556;-68
2021/11/18 12:22:55;;;;;;;25.33;9.10;;;10.70;99.90;;;;;;5116903;27;20465;-68
2021/11/18 12:25:37;;;;;;;17.60;9.90;;;10.70;99.90;;;;;;5116760;28;20443;-68
2021/11/18 12:28:19;;;;;;;29.57;9.47;;;10.70;99.90;;;;;;5116679;28;20529;-68
2021/11/18 12:30:57;;;;;;;23.97;10.00;;;10.70;99.90;;;;;;5116982;27;20454;-68
2021/11/18 12:33:47;;;;;;;17.20;9.53;;;10.70;99.90;;;;;;5117014;28;20562;-68
2021/11/18 12:36:20;;;;;;;24.40;11.57;;;10.70;99.90;;;;;;5116393;28;20437;-68
2021/11/18 12:38:49;;;;;;;23.33;11.30;;;10.70;99.90;;;;;;5116952;28;20471;-68
2021/11/18 12:41:48;;;;;;;20.97;10.43;;;10.70;99.90;;;;;;5116533;28;20878;-68
2021/11/18 12:44:47;;;;;;;21.60;9.67;;;10.80;99.90;;;;;;5116631;28;20446;-68
2021/11/18 12:47:18;;;;;;;19.13;8.73;;;10.80;99.90;;;;;;5115576;28;20466;-68
2021/11/18 12:50:08;;;;;;;23.13;8.80;;;10.80;99.90;;;;;;5116327;28;20488;-68
2021/11/18 12:52:37;;;;;;;28.37;10.80;;;10.70;99.90;;;;;;5116388;27;20853;-68
2021/11/18 12:55:34;;;;;;;24.43;10.90;;;10.70;99.90;;;;;;5115898;28;20455;-67